Details for Transavia (France) at LFLL




Go Back


Latest METAR
Local Time

LFLL 221730Z AUTO 16011KT 9999 1600 TSRA FEW017/// BKN047/// BKN064/// ///CB 21/12 Q1013

22/05/2018, 19:56:16

Description
Results
Transavia (France) Logo
Number of Pilots based at LFLL
0 Pilots Based here
Number of Transavia (France) Flights Departed from LFLL
0 Flights Departed
Number of Transavia (France) Flights Arrived at LFLL
0 Flights Arrived
Number of Transavia (France) Schedules Departing from LFLL
33 Schedules
Number of Transavia (France) Schedules Arriving at LFLL
34 Schedules
Number of Transavia (France) Schedules Departing from LFLL availible today
7 Schedules Today
Number of Transavia (France) Schedules Arriving at LFLL availible today
7 Schedules Today
Average Landing Rate at LFLL
-227 fpm
Transavia (France) Average Landing Rate at LFLL
0 fpm
Total Fuel Purchased at LFLL by Transavia (France)
0.00 kgs / 0.00 lbs

Pilots Based at LFLL


Pilot ID
Pilot Name
Pilot Rank
No. of Flights
No. of Flying Hours
There are no pilots assigned to this hub!   Will you be the first?
Content